createdAt,value
2022-09-23T00:00:54.019Z,26.01
2022-09-23T00:03:20.349Z,25.93
2022-09-23T00:05:46.681Z,25.93
2022-09-23T00:08:13.017Z,25.90
2022-09-23T00:10:39.358Z,25.97
2022-09-23T00:13:05.725Z,25.90
2022-09-23T00:15:32.066Z,25.87
2022-09-23T00:17:58.361Z,25.77
2022-09-23T00:20:24.687Z,25.93
2022-09-23T00:22:51.011Z,25.96
2022-09-23T00:25:17.339Z,25.96
2022-09-23T00:27:43.656Z,26.09
2022-09-23T00:30:09.980Z,26.03
2022-09-23T00:32:36.316Z,26.00
2022-09-23T00:35:02.646Z,25.96
2022-09-23T00:37:28.980Z,25.89
2022-09-23T00:39:55.428Z,25.89
2022-09-23T00:42:21.763Z,25.99
2022-09-23T00:44:48.101Z,25.91
2022-09-23T00:47:14.409Z,25.98
2022-09-23T00:49:40.752Z,26.01
2022-09-23T00:52:07.094Z,25.97
2022-09-23T00:54:33.409Z,25.99
2022-09-23T00:56:59.732Z,26.03
2022-09-23T00:59:26.047Z,25.93
2022-09-23T01:01:52.367Z,26.01
2022-09-23T01:04:18.673Z,25.98
2022-09-23T01:06:45.024Z,25.94
2022-09-23T01:09:11.346Z,25.96
2022-09-23T01:11:37.658Z,25.96
2022-09-23T01:14:03.992Z,25.89
2022-09-23T01:16:30.364Z,25.92
2022-09-23T01:18:56.720Z,25.98
2022-09-23T01:21:23.039Z,25.88
2022-09-23T01:23:49.346Z,25.92
2022-09-23T01:26:15.679Z,25.99
2022-09-23T01:28:42.004Z,25.91
2022-09-23T01:31:08.407Z,25.98
2022-09-23T01:33:34.793Z,25.99
2022-09-23T01:36:01.122Z,25.99
2022-09-23T01:38:27.430Z,26.06
2022-09-23T01:40:53.743Z,26.06
2022-09-23T01:43:20.090Z,26.00
2022-09-23T01:45:46.425Z,26.08
2022-09-23T01:48:12.784Z,25.97
2022-09-23T01:50:39.206Z,26.01
2022-09-23T01:53:05.542Z,25.98
2022-09-23T01:55:31.957Z,25.99
2022-09-23T01:57:58.315Z,25.90
2022-09-23T02:00:24.662Z,25.91
2022-09-23T02:02:51.021Z,25.82
2022-09-23T02:05:17.361Z,25.97
2022-09-23T02:07:43.674Z,25.84
2022-09-23T02:10:10.009Z,25.90
2022-09-23T02:12:36.319Z,26.00
2022-09-23T02:15:02.643Z,25.94
2022-09-23T02:17:28.977Z,25.97
2022-09-23T02:19:55.394Z,25.85
2022-09-23T02:22:21.725Z,25.95
2022-09-23T02:24:48.063Z,25.96
2022-09-23T02:27:14.408Z,25.99
2022-09-23T02:29:40.733Z,25.88
2022-09-23T02:32:07.103Z,25.92
2022-09-23T02:34:33.499Z,25.93
2022-09-23T02:36:59.815Z,25.98
2022-09-23T02:39:26.150Z,25.90
2022-09-23T02:41:52.470Z,25.94
2022-09-23T02:44:18.814Z,25.88
2022-09-23T02:46:45.144Z,25.89
2022-09-23T02:49:11.471Z,26.07
2022-09-23T02:51:37.803Z,26.01
2022-09-23T02:54:04.142Z,25.92
2022-09-23T02:56:30.456Z,25.86
2022-09-23T02:58:56.795Z,25.84
2022-09-23T03:01:23.189Z,25.82
2022-09-23T03:03:49.565Z,25.93
2022-09-23T03:06:15.922Z,25.90
2022-09-23T03:08:42.246Z,25.96
2022-09-23T03:11:08.643Z,25.98
2022-09-23T03:13:35.038Z,25.96
2022-09-23T03:16:01.473Z,25.87
2022-09-23T03:18:27.834Z,25.90
2022-09-23T03:20:54.183Z,25.90
2022-09-23T03:23:20.502Z,25.87
2022-09-23T03:25:46.835Z,25.85
2022-09-23T03:28:13.181Z,25.98
2022-09-23T03:30:39.499Z,25.84
2022-09-23T03:33:05.843Z,25.93
2022-09-23T03:35:32.200Z,25.91
2022-09-23T03:37:58.531Z,26.03
2022-09-23T03:40:24.902Z,25.93
2022-09-23T03:42:51.269Z,25.92
2022-09-23T03:45:17.602Z,25.99
2022-09-23T03:47:43.940Z,25.87
2022-09-23T03:50:10.331Z,25.93
2022-09-23T03:52:36.679Z,25.86
2022-09-23T03:55:03.029Z,25.99
2022-09-23T03:57:29.349Z,25.93
2022-09-23T03:59:55.689Z,25.95
2022-09-23T04:02:22.098Z,25.96
2022-09-23T04:04:48.447Z,26.09
2022-09-23T04:07:14.812Z,25.90
2022-09-23T04:09:41.174Z,25.87
2022-09-23T04:12:07.494Z,25.89
2022-09-23T04:14:33.810Z,25.89
2022-09-23T04:17:00.130Z,25.90
2022-09-23T04:19:26.454Z,25.91
2022-09-23T04:21:52.790Z,25.85
2022-09-23T04:24:19.110Z,25.99
2022-09-23T04:26:45.456Z,25.93
2022-09-23T04:29:11.796Z,25.95
2022-09-23T04:31:38.204Z,25.88
2022-09-23T04:34:04.591Z,25.98
2022-09-23T04:36:30.933Z,25.93
2022-09-23T04:38:57.264Z,25.92
2022-09-23T04:41:23.611Z,26.01
2022-09-23T04:43:49.927Z,25.92
2022-09-23T04:46:16.383Z,25.85
2022-09-23T04:48:42.753Z,25.80
2022-09-23T04:51:09.104Z,25.92
2022-09-23T04:53:35.434Z,25.95
2022-09-23T04:56:01.764Z,25.99
2022-09-23T04:58:28.105Z,25.87
2022-09-23T05:00:54.473Z,25.97
2022-09-23T05:03:20.854Z,25.91
2022-09-23T05:05:47.187Z,25.87
2022-09-23T05:08:13.514Z,26.04
2022-09-23T05:10:39.860Z,25.98
2022-09-23T05:13:06.208Z,25.92
2022-09-23T05:15:32.528Z,25.85
2022-09-23T05:17:58.851Z,25.83
2022-09-23T05:20:25.189Z,25.88
2022-09-23T05:22:51.515Z,25.88
2022-09-23T05:25:17.855Z,25.94
2022-09-23T05:27:44.219Z,25.98
2022-09-23T05:30:10.616Z,25.94
2022-09-23T05:32:36.939Z,25.98
2022-09-23T05:35:03.287Z,25.89
2022-09-23T05:37:29.688Z,25.95
2022-09-23T05:39:56.028Z,25.91
2022-09-23T05:42:22.586Z,26.00
2022-09-23T05:44:48.929Z,26.04
2022-09-23T05:47:15.295Z,26.08
2022-09-23T05:49:58.733Z,26.07
2022-09-23T05:52:25.789Z,26.04
2022-09-23T05:54:52.113Z,26.04
2022-09-23T05:57:18.433Z,26.03
2022-09-23T05:59:44.775Z,26.08
2022-09-23T06:02:11.160Z,26.03
2022-09-23T06:04:37.525Z,25.93
2022-09-23T06:07:03.932Z,25.97
2022-09-23T06:09:35.587Z,26.05
2022-09-23T06:12:02.771Z,25.97
2022-09-23T06:14:29.119Z,26.03
2022-09-23T06:16:55.446Z,26.02
2022-09-23T06:19:21.780Z,26.01
2022-09-23T06:21:48.086Z,25.89
2022-09-23T06:24:18.366Z,25.82
2022-09-23T06:26:46.215Z,25.91
2022-09-23T06:29:12.540Z,25.85
2022-09-23T06:31:38.897Z,25.95
2022-09-23T06:34:11.719Z,25.91
2022-09-23T06:36:43.727Z,25.93
2022-09-23T06:39:11.568Z,25.98
2022-09-23T06:41:37.882Z,25.90
2022-09-23T06:44:04.238Z,25.93
2022-09-23T06:46:30.577Z,25.97
2022-09-23T06:48:56.944Z,25.99
2022-09-23T06:51:23.258Z,25.99
2022-09-23T06:53:49.580Z,26.09
2022-09-23T06:56:15.909Z,26.18
2022-09-23T06:58:42.246Z,26.11
2022-09-23T07:01:08.588Z,26.10
2022-09-23T07:03:34.901Z,25.92
2022-09-23T07:06:01.212Z,25.87
2022-09-23T07:08:27.536Z,25.98
2022-09-23T07:10:53.851Z,25.92
2022-09-23T07:13:20.197Z,25.83
2022-09-23T07:15:46.578Z,26.06
2022-09-23T07:18:12.915Z,25.89
2022-09-23T07:20:39.247Z,25.85
2022-09-23T07:23:05.579Z,25.96
2022-09-23T07:25:31.904Z,25.93
2022-09-23T07:27:58.250Z,25.81
2022-09-23T07:30:25.628Z,25.75
2022-09-23T07:32:52.176Z,25.71
2022-09-23T07:35:18.527Z,25.70
2022-09-23T07:37:44.850Z,25.62
2022-09-23T07:40:11.224Z,25.56
2022-09-23T07:42:37.563Z,25.70
2022-09-23T07:45:03.893Z,25.74
2022-09-23T07:47:30.205Z,25.61
2022-09-23T07:49:56.552Z,25.61
2022-09-23T07:52:22.871Z,25.69
2022-09-23T07:54:49.198Z,25.60
2022-09-23T07:57:15.542Z,25.57
2022-09-23T07:59:41.861Z,25.56
2022-09-23T08:02:08.189Z,25.66
2022-09-23T08:04:34.525Z,25.77
2022-09-23T08:07:00.858Z,25.75
2022-09-23T08:09:27.191Z,25.75
2022-09-23T08:11:53.518Z,25.82
2022-09-23T08:14:19.857Z,25.81
2022-09-23T08:16:46.184Z,25.66
2022-09-23T08:19:12.515Z,25.59
2022-09-23T08:21:38.844Z,25.76
2022-09-23T08:24:05.235Z,25.69
2022-09-23T08:26:31.575Z,25.71
2022-09-23T08:28:57.899Z,25.77
2022-09-23T08:31:24.273Z,25.79
2022-09-23T08:33:50.634Z,25.71
2022-09-23T08:36:16.972Z,25.86
2022-09-23T08:38:43.303Z,25.77
2022-09-23T08:41:09.628Z,25.91
2022-09-23T08:43:35.940Z,25.84
2022-09-23T08:46:02.293Z,25.72
2022-09-23T08:48:28.643Z,25.81
2022-09-23T08:50:54.945Z,25.86
2022-09-23T08:53:21.262Z,25.82
2022-09-23T08:55:47.579Z,25.96
2022-09-23T08:58:25.013Z,25.99
2022-09-23T09:00:52.153Z,26.06
2022-09-23T09:03:18.489Z,26.06
2022-09-23T09:05:53.768Z,26.03
2022-09-23T09:08:20.642Z,25.97
2022-09-23T09:10:46.970Z,26.08
2022-09-23T09:13:13.317Z,26.07
2022-09-23T09:15:39.671Z,25.94
2022-09-23T09:18:06.030Z,26.06
2022-09-23T09:20:32.359Z,26.03
2022-09-23T09:22:58.686Z,25.96
2022-09-23T09:25:25.002Z,26.01
2022-09-23T09:27:51.321Z,26.06
2022-09-23T09:30:17.732Z,26.04
2022-09-23T09:32:44.051Z,25.88
2022-09-23T09:35:10.386Z,25.52
2022-09-23T09:37:36.714Z,25.30
2022-09-23T09:40:03.038Z,25.03
2022-09-23T09:42:29.353Z,24.80
2022-09-23T09:44:55.695Z,24.76
2022-09-23T09:47:22.026Z,24.69
2022-09-23T09:49:48.357Z,24.34
2022-09-23T09:52:14.766Z,24.26
2022-09-23T09:54:41.030Z,24.43
2022-09-23T09:57:07.482Z,24.56
2022-09-23T09:59:33.813Z,24.45
2022-09-23T10:02:00.145Z,24.39
2022-09-23T10:04:26.481Z,24.17
2022-09-23T10:06:52.820Z,24.26
2022-09-23T10:09:19.163Z,24.47
2022-09-23T10:11:45.486Z,24.41
2022-09-23T10:14:11.794Z,24.31
2022-09-23T10:16:38.134Z,24.42
2022-09-23T10:19:04.579Z,24.70
2022-09-23T10:21:30.905Z,24.53
2022-09-23T10:23:57.221Z,24.58
2022-09-23T10:26:23.572Z,24.74
2022-09-23T10:28:49.882Z,24.82
2022-09-23T10:31:16.258Z,24.87
2022-09-23T10:33:42.606Z,25.03
2022-09-23T10:36:08.941Z,25.11
2022-09-23T10:38:35.341Z,25.23
2022-09-23T10:41:01.759Z,25.31
2022-09-23T10:43:28.202Z,25.31
2022-09-23T10:45:54.548Z,25.45
2022-09-23T10:48:20.895Z,25.33
2022-09-23T10:50:47.206Z,25.31
2022-09-23T10:53:13.511Z,25.41
2022-09-23T10:55:39.843Z,25.48
2022-09-23T10:58:06.166Z,25.47
2022-09-23T11:00:32.504Z,25.53
2022-09-23T11:02:58.851Z,25.57
2022-09-23T11:05:25.182Z,25.55
2022-09-23T11:07:51.508Z,25.60
2022-09-23T11:10:29.077Z,25.62
2022-09-23T11:13:04.131Z,25.55
2022-09-23T11:15:30.459Z,25.67
2022-09-23T11:17:56.788Z,25.66
2022-09-23T11:20:23.148Z,25.65
2022-09-23T11:22:49.496Z,25.82
2022-09-23T11:25:15.833Z,25.80
2022-09-23T11:27:42.163Z,25.78
2022-09-23T11:30:08.486Z,25.77
2022-09-23T11:32:34.826Z,25.91
2022-09-23T11:35:01.139Z,25.92
2022-09-23T11:37:27.449Z,25.89
2022-09-23T11:39:53.768Z,25.88
2022-09-23T11:42:20.102Z,25.88
2022-09-23T11:44:46.427Z,25.85
2022-09-23T11:47:12.879Z,25.92
2022-09-23T11:49:39.228Z,25.82
2022-09-23T11:52:05.546Z,25.96
2022-09-23T11:54:31.897Z,25.98
2022-09-23T11:56:58.207Z,26.01
2022-09-23T11:59:34.504Z,26.12
2022-09-23T12:02:15.343Z,26.07
2022-09-23T12:04:56.330Z,26.14
2022-09-23T12:07:24.274Z,26.15
2022-09-23T12:09:58.823Z,26.11
2022-09-23T12:12:27.223Z,26.20
2022-09-23T12:14:53.676Z,26.10
2022-09-23T12:17:20.010Z,26.18
2022-09-23T12:19:46.328Z,26.12
2022-09-23T12:22:12.665Z,26.12
2022-09-23T12:24:38.988Z,26.17
2022-09-23T12:27:05.302Z,26.09
2022-09-23T12:29:31.614Z,26.13
2022-09-23T12:31:57.970Z,26.17
2022-09-23T12:34:24.281Z,26.16
2022-09-23T12:36:50.600Z,26.14
2022-09-23T12:39:16.926Z,26.15
2022-09-23T12:41:43.239Z,26.18
2022-09-23T12:44:09.586Z,26.13
2022-09-23T12:46:36.000Z,26.11
2022-09-23T12:49:02.319Z,26.03
2022-09-23T12:51:28.635Z,26.07
2022-09-23T12:53:54.950Z,26.01
2022-09-23T12:56:21.271Z,26.10
2022-09-23T12:58:47.594Z,26.15
2022-09-23T13:01:14.137Z,26.07
2022-09-23T13:03:40.590Z,26.14
2022-09-23T13:06:06.920Z,26.10
2022-09-23T13:08:33.247Z,26.12
2022-09-23T13:10:59.575Z,26.11
2022-09-23T13:13:25.903Z,26.15
2022-09-23T13:15:52.210Z,26.10
2022-09-23T13:18:18.535Z,26.15
2022-09-23T13:20:44.886Z,26.12
2022-09-23T13:23:11.209Z,26.02
2022-09-23T13:25:37.521Z,26.15
2022-09-23T13:28:04.002Z,26.21
2022-09-23T13:30:30.370Z,26.08
2022-09-23T13:32:56.699Z,26.08
2022-09-23T13:35:23.029Z,26.02
2022-09-23T13:37:49.365Z,26.05
2022-09-23T13:40:15.747Z,26.21
2022-09-23T13:42:42.110Z,26.16
2022-09-23T13:45:08.470Z,26.18
2022-09-23T13:47:34.845Z,26.28
2022-09-23T13:50:01.239Z,26.22
2022-09-23T13:52:27.586Z,26.17
2022-09-23T13:54:53.923Z,26.15
2022-09-23T13:57:20.240Z,26.12
2022-09-23T13:59:46.566Z,26.15
2022-09-23T14:02:12.920Z,26.21
2022-09-23T14:04:39.309Z,26.26
2022-09-23T14:07:05.624Z,26.28
2022-09-23T14:09:31.957Z,26.24
2022-09-23T14:11:58.278Z,26.24
2022-09-23T14:14:24.610Z,26.28
2022-09-23T14:16:50.973Z,26.31
2022-09-23T14:19:17.343Z,26.29
2022-09-23T14:21:43.654Z,26.28
2022-09-23T14:24:10.025Z,26.29
2022-09-23T14:26:36.471Z,26.28
2022-09-23T14:29:02.957Z,26.29
2022-09-23T14:31:29.413Z,26.34
2022-09-23T14:33:55.760Z,26.38
2022-09-23T14:36:22.078Z,26.30
2022-09-23T14:38:48.409Z,26.40
2022-09-23T14:41:14.734Z,26.28
2022-09-23T14:43:41.059Z,26.33
2022-09-23T14:46:07.437Z,26.31
2022-09-23T14:48:33.804Z,26.33
2022-09-23T14:51:00.140Z,26.29
2022-09-23T14:53:26.479Z,26.26
2022-09-23T14:55:52.812Z,26.32
2022-09-23T14:58:19.189Z,26.37
2022-09-23T15:00:45.616Z,26.32
2022-09-23T15:03:11.975Z,26.42
2022-09-23T15:05:38.321Z,26.30
2022-09-23T15:08:04.667Z,26.08
2022-09-23T15:10:31.002Z,26.17
2022-09-23T15:12:57.323Z,26.18
2022-09-23T15:15:23.651Z,26.31
2022-09-23T15:17:49.990Z,26.14
2022-09-23T15:20:16.322Z,25.97
2022-09-23T15:22:42.640Z,25.95
2022-09-23T15:25:08.983Z,26.01
2022-09-23T15:27:35.299Z,25.90
2022-09-23T15:30:01.618Z,26.02
2022-09-23T15:32:27.946Z,25.69
2022-09-23T15:34:54.296Z,25.73
2022-09-23T15:37:20.649Z,25.75
2022-09-23T15:39:46.973Z,25.52
2022-09-23T15:42:13.288Z,25.59
2022-09-23T15:44:39.640Z,25.56
2022-09-23T15:47:05.966Z,25.42
2022-09-23T15:49:32.266Z,25.51
2022-09-23T15:51:58.595Z,25.73
2022-09-23T15:54:24.930Z,25.78
2022-09-23T15:56:51.249Z,25.89
2022-09-23T15:59:17.662Z,25.86
2022-09-23T16:01:44.097Z,25.89
2022-09-23T16:04:10.476Z,25.90
2022-09-23T16:06:36.812Z,26.01
2022-09-23T16:09:03.204Z,25.88
2022-09-23T16:11:29.560Z,25.98
2022-09-23T16:13:55.883Z,25.91
2022-09-23T16:16:22.274Z,25.88
2022-09-23T16:18:48.685Z,25.88
2022-09-23T16:21:15.011Z,25.95
2022-09-23T16:23:41.346Z,25.98
2022-09-23T16:26:07.674Z,25.97
2022-09-23T16:28:34.053Z,25.92
2022-09-23T16:31:00.388Z,25.91
2022-09-23T16:33:26.725Z,25.94
2022-09-23T16:35:53.042Z,26.04
2022-09-23T16:38:19.360Z,25.96
2022-09-23T16:40:47.335Z,26.02
2022-09-23T16:43:13.835Z,25.98
2022-09-23T16:45:40.243Z,25.97
2022-09-23T16:48:06.614Z,26.01
2022-09-23T16:50:32.945Z,25.98
2022-09-23T16:52:59.283Z,26.03
2022-09-23T16:55:25.632Z,26.08
2022-09-23T16:57:51.996Z,26.03
2022-09-23T17:00:18.333Z,26.04
2022-09-23T17:02:44.706Z,25.98
2022-09-23T17:05:11.075Z,25.96
2022-09-23T17:07:37.396Z,25.90
2022-09-23T17:10:03.718Z,25.93
2022-09-23T17:12:30.028Z,25.90
2022-09-23T17:14:56.358Z,25.98
2022-09-23T17:17:22.677Z,25.90
2022-09-23T17:19:49.014Z,25.91
2022-09-23T17:22:15.337Z,25.96
2022-09-23T17:24:41.665Z,26.02
2022-09-23T17:27:08.001Z,26.05
2022-09-23T17:29:34.337Z,26.09
2022-09-23T17:32:00.753Z,26.07
2022-09-23T17:34:27.141Z,26.11
2022-09-23T17:36:53.552Z,26.24
2022-09-23T17:39:19.880Z,26.10
2022-09-23T17:41:46.282Z,26.06
2022-09-23T17:44:12.644Z,26.07
2022-09-23T17:46:38.961Z,26.06
2022-09-23T17:49:05.302Z,25.96
2022-09-23T17:51:31.658Z,25.98
2022-09-23T17:53:58.017Z,25.92
2022-09-23T17:56:24.345Z,25.89
2022-09-23T17:58:50.676Z,25.90
2022-09-23T18:01:17.142Z,25.97
2022-09-23T18:03:43.572Z,25.99
2022-09-23T18:06:09.891Z,26.01
2022-09-23T18:08:36.222Z,25.99
2022-09-23T18:11:02.536Z,25.97
2022-09-23T18:13:28.880Z,25.99
2022-09-23T18:15:55.255Z,26.06
2022-09-23T18:18:21.642Z,26.03
2022-09-23T18:20:47.949Z,26.00
2022-09-23T18:23:14.276Z,26.01
2022-09-23T18:25:40.594Z,26.07
2022-09-23T18:28:06.907Z,26.03
2022-09-23T18:30:33.244Z,26.07
2022-09-23T18:32:59.568Z,26.04
2022-09-23T18:35:25.922Z,26.01
2022-09-23T18:37:52.343Z,25.99
2022-09-23T18:40:18.706Z,25.99
2022-09-23T18:42:45.080Z,25.99
2022-09-23T18:45:11.398Z,26.05
2022-09-23T18:47:37.780Z,26.05
2022-09-23T18:50:04.107Z,26.13
2022-09-23T18:52:30.410Z,26.00
2022-09-23T18:54:56.723Z,25.97
2022-09-23T18:57:23.065Z,25.96
2022-09-23T18:59:49.404Z,26.13
2022-09-23T19:02:15.798Z,26.12
2022-09-23T19:04:42.168Z,26.09
2022-09-23T19:07:08.498Z,26.20
2022-09-23T19:09:34.814Z,25.95
2022-09-23T19:12:01.143Z,25.81
2022-09-23T19:14:27.482Z,25.70
2022-09-23T19:16:53.850Z,25.68
2022-09-23T19:19:20.192Z,25.57
2022-09-23T19:21:46.548Z,25.62
2022-09-23T19:24:12.877Z,25.65
2022-09-23T19:26:39.225Z,25.57
2022-09-23T19:29:05.559Z,25.38
2022-09-23T19:31:32.076Z,25.21
2022-09-23T19:33:58.477Z,25.30
2022-09-23T19:36:24.979Z,25.35
2022-09-23T19:38:51.328Z,25.49
2022-09-23T19:41:17.680Z,25.51
2022-09-23T19:43:44.033Z,25.52
2022-09-23T19:46:10.382Z,25.70
2022-09-23T19:48:36.757Z,25.72
2022-09-23T19:51:03.175Z,25.79
2022-09-23T19:53:29.527Z,25.78
2022-09-23T19:55:55.888Z,25.73
2022-09-23T19:58:22.248Z,25.74
2022-09-23T20:00:48.750Z,25.70
2022-09-23T20:03:15.152Z,25.64
2022-09-23T20:05:41.569Z,25.59
2022-09-23T20:08:07.927Z,25.59
2022-09-23T20:10:34.355Z,25.58
2022-09-23T20:13:00.708Z,25.56
2022-09-23T20:15:27.372Z,25.58
2022-09-23T20:17:53.880Z,25.63
2022-09-23T20:20:20.242Z,25.56
2022-09-23T20:22:46.854Z,25.58
2022-09-23T20:25:13.545Z,25.58
2022-09-23T20:27:39.936Z,25.60
2022-09-23T20:30:06.668Z,25.50
2022-09-23T20:32:33.276Z,25.45
2022-09-23T20:35:00.012Z,25.41
2022-09-23T20:37:26.444Z,25.39
2022-09-23T20:39:52.912Z,25.39
2022-09-23T20:42:19.462Z,25.38
2022-09-23T20:44:45.785Z,25.39
2022-09-23T20:47:12.155Z,25.42
2022-09-23T20:49:38.518Z,25.38
2022-09-23T20:52:04.875Z,25.35
2022-09-23T20:54:31.204Z,25.36
2022-09-23T20:56:57.522Z,25.31
2022-09-23T20:59:23.833Z,25.18
2022-09-23T21:01:50.301Z,25.08
2022-09-23T21:04:16.632Z,25.11
2022-09-23T21:06:42.964Z,25.07
2022-09-23T21:09:09.308Z,25.07
2022-09-23T21:11:35.644Z,25.07
2022-09-23T21:14:02.072Z,25.08
2022-09-23T21:16:28.562Z,25.00
2022-09-23T21:18:54.930Z,24.98
2022-09-23T21:21:22.474Z,25.02
2022-09-23T21:23:48.922Z,25.08
2022-09-23T21:26:15.257Z,25.08
2022-09-23T21:28:41.587Z,25.03
2022-09-23T21:31:08.005Z,24.94
2022-09-23T21:33:34.428Z,24.86
2022-09-23T21:36:00.755Z,24.91
2022-09-23T21:38:27.089Z,24.84
2022-09-23T21:40:53.469Z,24.79
2022-09-23T21:43:19.854Z,24.88
2022-09-23T21:45:46.184Z,24.86
2022-09-23T21:48:12.514Z,24.80
2022-09-23T21:50:38.838Z,24.78
2022-09-23T21:53:05.154Z,24.70
2022-09-23T21:55:31.481Z,24.83
2022-09-23T21:57:57.804Z,25.01
2022-09-23T22:00:24.126Z,25.10
2022-09-23T22:02:50.451Z,25.22
2022-09-23T22:05:16.820Z,25.25
2022-09-23T22:07:43.159Z,25.31
2022-09-23T22:10:09.532Z,25.40
2022-09-23T22:12:35.936Z,25.38
2022-09-23T22:15:02.267Z,25.50
2022-09-23T22:17:28.721Z,25.60
2022-09-23T22:19:55.067Z,25.67
2022-09-23T22:22:21.413Z,25.63
2022-09-23T22:24:47.756Z,25.69
2022-09-23T22:27:14.084Z,25.74
2022-09-23T22:29:40.436Z,25.79
2022-09-23T22:32:06.808Z,25.73
2022-09-23T22:34:48.928Z,25.79
2022-09-23T22:37:15.657Z,25.83
2022-09-23T22:39:41.996Z,25.80
2022-09-23T22:42:08.340Z,25.78
2022-09-23T22:44:34.692Z,25.83
2022-09-23T22:47:01.205Z,25.87
2022-09-23T22:49:27.695Z,25.81
2022-09-23T22:51:54.016Z,25.89
2022-09-23T22:54:20.335Z,25.90
2022-09-23T22:56:46.650Z,25.98
2022-09-23T22:59:13.017Z,26.00
2022-09-23T23:01:39.464Z,26.02
2022-09-23T23:04:06.227Z,26.01
2022-09-23T23:06:32.694Z,25.97
2022-09-23T23:08:59.027Z,25.93
2022-09-23T23:11:25.365Z,25.93
2022-09-23T23:13:51.719Z,26.02
2022-09-23T23:16:18.094Z,26.01
2022-09-23T23:18:44.510Z,25.97
2022-09-23T23:21:10.851Z,25.98
2022-09-23T23:23:37.193Z,25.97
2022-09-23T23:26:08.983Z,25.98
2022-09-23T23:28:35.974Z,26.00
2022-09-23T23:31:02.443Z,25.96
2022-09-23T23:33:28.827Z,25.92
2022-09-23T23:35:55.191Z,25.98
2022-09-23T23:38:21.536Z,25.85
2022-09-23T23:40:47.998Z,25.95
2022-09-23T23:43:14.430Z,25.96
2022-09-23T23:45:40.766Z,25.97
2022-09-23T23:48:07.111Z,25.96
2022-09-23T23:50:33.454Z,25.99
2022-09-23T23:52:59.787Z,25.96
2022-09-23T23:55:26.123Z,26.05
2022-09-23T23:57:52.469Z,25.96
